createdAt,value
2022-08-23T00:02:22.912Z,0.73
2022-08-23T00:05:08.456Z,1.07
2022-08-23T00:07:50.445Z,0.83
2022-08-23T00:10:20.470Z,1.05
2022-08-23T00:12:57.817Z,1.00
2022-08-23T00:15:26.722Z,0.93
2022-08-23T00:17:59.869Z,1.33
2022-08-23T00:20:41.167Z,1.20
2022-08-23T00:23:18.445Z,1.08
2022-08-23T00:26:05.022Z,0.80
2022-08-23T00:28:35.237Z,1.20
2022-08-23T00:31:09.712Z,1.20
2022-08-23T00:33:46.007Z,1.02
2022-08-23T00:36:22.077Z,1.00
2022-08-23T00:38:55.161Z,0.70
2022-08-23T00:41:29.124Z,0.90
2022-08-23T00:44:20.917Z,0.73
2022-08-23T00:47:17.044Z,1.33
2022-08-23T00:49:54.956Z,0.75
2022-08-23T00:52:40.389Z,0.97
2022-08-23T00:55:27.101Z,1.20
2022-08-23T00:58:01.366Z,0.82
2022-08-23T01:00:42.546Z,1.10
2022-08-23T01:03:18.764Z,1.00
2022-08-23T01:06:26.117Z,1.30
2022-08-23T01:09:10.087Z,1.00
2022-08-23T01:11:53.180Z,1.30
2022-08-23T01:14:50.751Z,1.20
2022-08-23T01:17:34.245Z,1.00
2022-08-23T01:20:14.485Z,1.10
2022-08-23T01:23:25.113Z,0.90
2022-08-23T01:25:54.860Z,0.90
2022-08-23T01:28:32.142Z,0.73
2022-08-23T01:31:07.851Z,1.00
2022-08-23T01:33:38.623Z,0.67
2022-08-23T01:36:10.576Z,0.63
2022-08-23T01:38:47.297Z,0.80
2022-08-23T01:41:15.418Z,1.23
2022-08-23T01:43:50.288Z,0.77
2022-08-23T01:46:26.442Z,0.87
2022-08-23T01:49:04.480Z,1.03
2022-08-23T01:51:49.682Z,0.60
2022-08-23T01:54:21.364Z,0.80
2022-08-23T01:56:53.232Z,0.73
2022-08-23T01:59:29.975Z,0.88
2022-08-23T02:02:04.421Z,0.90
2022-08-23T02:04:49.802Z,0.70
2022-08-23T02:07:20.654Z,0.73
2022-08-23T02:09:50.398Z,0.80
2022-08-23T02:12:22.181Z,0.73
2022-08-23T02:15:10.869Z,0.93
2022-08-23T02:17:57.882Z,0.83
2022-08-23T02:20:33.425Z,0.67
2022-08-23T02:23:04.978Z,0.70
2022-08-23T02:25:50.481Z,1.02
2022-08-23T02:28:34.165Z,0.73
2022-08-23T02:31:08.391Z,0.83
2022-08-23T02:33:43.887Z,0.80
2022-08-23T02:38:58.759Z,1.00
2022-08-23T02:41:31.303Z,0.67
2022-08-23T02:44:13.783Z,0.80
2022-08-23T02:46:45.675Z,0.80
2022-08-23T02:49:25.885Z,0.60
2022-08-23T02:52:05.832Z,0.93
2022-08-23T02:54:41.026Z,0.77
2022-08-23T02:57:09.914Z,0.67
2022-08-23T02:59:43.972Z,0.60
2022-08-23T03:02:18.136Z,0.90
2022-08-23T03:04:51.708Z,0.83
2022-08-23T03:07:37.044Z,0.67
2022-08-23T03:10:10.274Z,0.97
2022-08-23T03:12:54.928Z,0.77
2022-08-23T03:15:28.209Z,0.50
2022-08-23T03:18:02.428Z,0.70
2022-08-23T03:20:39.221Z,0.90
2022-08-23T03:23:17.069Z,0.70
2022-08-23T03:28:41.145Z,0.50
2022-08-23T03:31:18.022Z,0.43
2022-08-23T03:34:11.198Z,0.97
2022-08-23T03:36:43.777Z,0.80
2022-08-23T03:39:23.776Z,0.80
2022-08-23T03:41:55.020Z,0.73
2022-08-23T03:44:30.191Z,0.90
2022-08-23T03:47:02.866Z,0.70
2022-08-23T03:49:35.190Z,0.82
2022-08-23T03:52:10.516Z,0.83
2022-08-23T03:54:45.074Z,0.77
2022-08-23T03:57:20.624Z,0.87
2022-08-23T03:59:55.886Z,0.83
2022-08-23T04:02:27.941Z,0.57
2022-08-23T04:04:58.001Z,0.67
2022-08-23T04:08:01.565Z,0.70
2022-08-23T04:10:42.963Z,0.83
2022-08-23T04:13:17.091Z,0.70
2022-08-23T04:15:50.164Z,0.60
2022-08-23T04:18:24.966Z,0.60
2022-08-23T04:20:58.196Z,0.90
2022-08-23T04:23:28.260Z,0.80
2022-08-23T04:26:02.907Z,0.57
2022-08-23T04:28:34.936Z,0.60
2022-08-23T04:31:15.238Z,0.70
2022-08-23T04:33:59.865Z,0.73
2022-08-23T04:36:40.720Z,0.70
2022-08-23T04:39:25.322Z,0.70
2022-08-23T04:42:14.985Z,0.85
2022-08-23T04:44:51.079Z,0.70
2022-08-23T04:47:20.565Z,0.60
2022-08-23T04:49:53.458Z,0.73
2022-08-23T04:52:22.081Z,0.68
2022-08-23T04:54:50.693Z,0.90
2022-08-23T04:57:46.031Z,0.50
2022-08-23T05:00:27.972Z,1.27
2022-08-23T05:03:06.919Z,0.40
2022-08-23T05:05:36.972Z,0.70
2022-08-23T05:08:15.389Z,0.53
2022-08-23T05:10:48.311Z,0.67
2022-08-23T05:13:22.382Z,0.50
2022-08-23T05:15:53.196Z,0.90
2022-08-23T05:18:39.483Z,0.70
2022-08-23T05:21:18.271Z,0.60
2022-08-23T05:24:03.873Z,0.73
2022-08-23T05:26:39.599Z,0.60
2022-08-23T05:29:13.494Z,0.60
2022-08-23T05:31:50.746Z,0.70
2022-08-23T05:34:32.012Z,0.90
2022-08-23T05:37:08.505Z,0.60
2022-08-23T05:39:46.597Z,0.70
2022-08-23T05:42:22.233Z,0.90
2022-08-23T05:44:57.341Z,0.83
2022-08-23T05:47:39.479Z,1.07
2022-08-23T05:50:26.536Z,0.40
2022-08-23T05:53:02.038Z,0.80
2022-08-23T05:55:46.923Z,0.77
2022-08-23T05:58:27.457Z,1.20
2022-08-23T06:01:12.595Z,0.65
2022-08-23T06:03:51.252Z,0.60
2022-08-23T06:06:37.179Z,0.70
2022-08-23T06:09:10.462Z,0.70
2022-08-23T06:14:20.038Z,0.50
2022-08-23T06:16:56.250Z,0.50
2022-08-23T06:19:36.756Z,0.90
2022-08-23T06:22:34.005Z,0.80
2022-08-23T06:25:19.310Z,0.60
2022-08-23T06:28:10.401Z,0.63
2022-08-23T06:30:43.109Z,0.50
2022-08-23T06:33:31.066Z,0.50
2022-08-23T06:36:34.320Z,0.87
2022-08-23T06:39:37.988Z,0.50
2022-08-23T06:42:38.313Z,0.85
2022-08-23T06:45:13.980Z,0.70
2022-08-23T06:50:39.204Z,0.80
2022-08-23T06:53:39.895Z,0.57
2022-08-23T06:56:40.735Z,0.73
2022-08-23T06:59:24.335Z,0.50
2022-08-23T07:02:21.130Z,0.60
2022-08-23T07:05:11.070Z,0.63
2022-08-23T07:08:01.491Z,0.90
2022-08-23T07:10:29.767Z,0.95
2022-08-23T07:13:03.110Z,0.50
2022-08-23T07:15:35.125Z,0.50
2022-08-23T07:18:11.006Z,0.90
2022-08-23T07:20:46.116Z,0.60
2022-08-23T07:23:23.062Z,0.77
2022-08-23T07:26:20.375Z,0.60
2022-08-23T07:28:52.690Z,0.63
2022-08-23T07:31:30.246Z,0.85
2022-08-23T07:34:07.357Z,0.52
2022-08-23T07:36:56.822Z,0.60
2022-08-23T07:39:47.490Z,0.63
2022-08-23T07:42:23.496Z,0.50
2022-08-23T07:45:02.182Z,0.93
2022-08-23T07:47:34.133Z,0.90
2022-08-23T07:50:07.898Z,0.52
2022-08-23T07:52:39.710Z,0.70
2022-08-23T07:55:12.775Z,0.63
2022-08-23T07:58:13.790Z,0.50
2022-08-23T08:01:27.206Z,1.00
2022-08-23T08:04:01.170Z,0.80
2022-08-23T08:09:35.125Z,0.50
2022-08-23T08:12:05.837Z,1.08
2022-08-23T08:14:42.499Z,0.50
2022-08-23T08:17:17.929Z,0.93
2022-08-23T08:20:18.389Z,0.75
2022-08-23T08:23:23.087Z,0.30
2022-08-23T08:26:16.724Z,0.60
2022-08-23T08:29:00.780Z,0.50
2022-08-23T08:31:34.100Z,0.38
2022-08-23T08:34:05.458Z,0.57
2022-08-23T08:37:13.792Z,0.40
2022-08-23T08:39:48.666Z,0.53
2022-08-23T08:43:09.416Z,0.65
2022-08-23T08:46:07.987Z,0.60
2022-08-23T08:48:48.277Z,0.70
2022-08-23T08:52:05.300Z,0.40
2022-08-23T08:54:48.163Z,0.73
2022-08-23T08:57:32.724Z,0.43
2022-08-23T09:00:16.890Z,0.30
2022-08-23T09:02:52.265Z,0.77
2022-08-23T09:05:34.737Z,0.30
2022-08-23T09:08:41.429Z,0.70
2022-08-23T09:11:41.362Z,0.60
2022-08-23T09:14:55.225Z,0.32
2022-08-23T09:17:52.894Z,0.55
2022-08-23T09:20:33.380Z,0.40
2022-08-23T09:23:35.399Z,0.45
2022-08-23T09:26:23.660Z,0.50
2022-08-23T09:29:08.642Z,0.70
2022-08-23T09:31:54.561Z,0.60
2022-08-23T09:34:44.286Z,0.50
2022-08-23T09:37:32.455Z,0.43
2022-08-23T09:40:20.968Z,0.43
2022-08-23T09:43:18.928Z,0.47
2022-08-23T09:45:52.469Z,0.50
2022-08-23T09:48:56.397Z,0.40
2022-08-23T09:51:42.839Z,0.40
2022-08-23T09:54:36.383Z,0.50
2022-08-23T09:57:18.482Z,0.40
2022-08-23T09:59:52.015Z,0.50
2022-08-23T10:05:52.727Z,0.70
2022-08-23T10:08:29.700Z,0.32
2022-08-23T10:11:13.323Z,0.35
2022-08-23T10:13:55.680Z,0.60
2022-08-23T10:16:51.320Z,0.40
2022-08-23T10:20:02.774Z,0.50
2022-08-23T10:22:46.231Z,0.40
2022-08-23T10:25:44.618Z,0.47
2022-08-23T10:29:15.513Z,0.45
2022-08-23T10:35:10.247Z,0.45
2022-08-23T10:38:33.217Z,0.30
2022-08-23T10:41:45.598Z,0.40
2022-08-23T10:44:33.257Z,0.43
2022-08-23T10:47:46.474Z,0.50
2022-08-23T10:50:29.852Z,0.40
2022-08-23T10:56:24.595Z,0.32
2022-08-23T10:59:22.861Z,0.50
2022-08-23T11:02:43.861Z,0.70
2022-08-23T11:05:44.087Z,0.40
2022-08-23T11:08:51.821Z,0.50
2022-08-23T11:11:56.301Z,0.28
2022-08-23T11:14:50.680Z,0.30
2022-08-23T11:18:02.472Z,0.60
2022-08-23T11:20:59.115Z,0.60
2022-08-23T11:23:58.544Z,0.40
2022-08-23T11:26:51.390Z,0.40
2022-08-23T11:29:32.205Z,0.45
2022-08-23T11:32:46.574Z,0.50
2022-08-23T11:35:48.208Z,0.52
2022-08-23T11:38:58.919Z,0.50
2022-08-23T11:41:36.652Z,0.35
2022-08-23T11:44:17.885Z,0.50
2022-08-23T11:50:16.608Z,0.40
2022-08-23T11:53:28.276Z,0.50
2022-08-23T11:56:23.102Z,0.52
2022-08-23T11:59:33.470Z,0.47
2022-08-23T12:02:38.021Z,0.40
2022-08-23T12:05:27.333Z,0.50
2022-08-23T12:08:37.200Z,0.45
2022-08-23T12:11:13.501Z,0.40
2022-08-23T12:14:40.277Z,0.63
2022-08-23T12:17:19.330Z,0.45
2022-08-23T12:20:00.882Z,0.50
2022-08-23T12:22:39.675Z,0.25
2022-08-23T12:25:10.674Z,0.63
2022-08-23T12:28:03.541Z,0.40
2022-08-23T12:30:59.401Z,0.40
2022-08-23T12:34:05.494Z,0.47
2022-08-23T12:36:56.538Z,0.43
2022-08-23T12:39:50.366Z,0.40
2022-08-23T12:42:28.138Z,0.30
2022-08-23T12:45:20.337Z,0.38
2022-08-23T12:48:06.831Z,0.30
2022-08-23T12:50:40.395Z,0.30
2022-08-23T12:53:48.053Z,0.45
2022-08-23T12:56:42.617Z,0.32
2022-08-23T12:59:37.404Z,0.57
2022-08-23T13:02:13.269Z,0.40
2022-08-23T13:05:00.905Z,0.30
2022-08-23T13:07:39.633Z,0.82
2022-08-23T13:10:16.365Z,0.40
2022-08-23T13:12:49.251Z,0.38
2022-08-23T13:15:45.635Z,0.40
2022-08-23T13:18:33.756Z,0.37
2022-08-23T13:21:40.032Z,0.40
2022-08-23T13:25:11.483Z,0.32
2022-08-23T13:28:23.796Z,0.20
2022-08-23T13:31:06.875Z,0.40
2022-08-23T13:33:36.811Z,0.10
2022-08-23T13:36:21.677Z,0.20
2022-08-23T13:38:54.633Z,0.30
2022-08-23T13:44:35.167Z,0.17
2022-08-23T13:49:55.521Z,0.20
2022-08-23T13:55:22.892Z,0.28
2022-08-23T13:57:56.543Z,0.10
2022-08-23T14:00:29.692Z,0.20
2022-08-23T14:02:58.993Z,0.10
2022-08-23T14:05:38.992Z,0.10
2022-08-23T14:08:10.036Z,0.30
2022-08-23T14:10:44.866Z,0.20
2022-08-23T14:13:23.801Z,0.20
2022-08-23T14:15:57.156Z,0.17
2022-08-23T14:19:15.123Z,0.20
2022-08-23T14:21:32.505Z,0.30
2022-08-23T14:24:11.962Z,0.13
2022-08-23T14:26:51.797Z,0.30
2022-08-23T14:29:30.232Z,0.20
2022-08-23T14:32:10.744Z,0.10
2022-08-23T14:34:43.590Z,0.10
2022-08-23T14:38:02.060Z,0.20
2022-08-23T14:40:20.706Z,0.13
2022-08-23T14:43:05.393Z,0.10
2022-08-23T14:45:42.729Z,0.30
2022-08-23T14:48:15.055Z,0.10
2022-08-23T14:50:46.715Z,0.20
2022-08-23T14:53:18.757Z,0.22
2022-08-23T14:56:12.303Z,0.30
2022-08-23T14:58:48.428Z,0.40
2022-08-23T15:01:26.276Z,0.25
2022-08-23T15:03:59.004Z,0.30
2022-08-23T15:07:06.835Z,0.40
2022-08-23T15:09:36.908Z,0.20
2022-08-23T15:15:36.732Z,0.22
2022-08-23T15:18:12.195Z,0.13
2022-08-23T15:20:48.496Z,0.10
2022-08-23T15:23:29.896Z,0.20
2022-08-23T15:25:59.382Z,0.00
2022-08-23T15:28:35.100Z,0.30
2022-08-23T15:31:10.644Z,0.10
2022-08-23T15:33:46.241Z,0.20
2022-08-23T15:36:19.468Z,0.20
2022-08-23T15:38:50.625Z,0.30
2022-08-23T15:41:28.174Z,0.10
2022-08-23T15:44:04.859Z,0.38
2022-08-23T15:46:44.771Z,0.43
2022-08-23T15:49:26.440Z,0.40
2022-08-23T15:52:03.663Z,0.00
2022-08-23T15:54:32.051Z,0.28
2022-08-23T15:57:03.894Z,0.40
2022-08-23T15:59:37.110Z,0.20
2022-08-23T16:02:08.976Z,0.20
2022-08-23T16:04:44.767Z,0.10
2022-08-23T16:07:19.351Z,0.20
2022-08-23T16:09:50.410Z,0.22
2022-08-23T16:12:34.076Z,0.35
2022-08-23T16:15:08.454Z,0.10
2022-08-23T16:17:40.631Z,0.30
2022-08-23T16:20:15.406Z,0.30
2022-08-23T16:22:51.223Z,0.25
2022-08-23T16:25:36.943Z,0.20
2022-08-23T16:28:14.365Z,0.30
2022-08-23T16:30:46.193Z,0.20
2022-08-23T16:33:30.895Z,0.20
2022-08-23T16:36:01.276Z,0.10
2022-08-23T16:38:36.136Z,0.10
2022-08-23T16:41:07.251Z,0.20
2022-08-23T16:43:52.496Z,0.13
2022-08-23T16:46:27.161Z,0.10
2022-08-23T16:48:59.392Z,0.20
2022-08-23T16:51:30.380Z,0.28
2022-08-23T16:54:03.470Z,0.25
2022-08-23T16:56:42.604Z,0.30
2022-08-23T16:59:14.649Z,0.30
2022-08-23T17:02:11.006Z,0.10
2022-08-23T17:04:57.773Z,0.30
2022-08-23T17:07:29.035Z,0.25
2022-08-23T17:12:46.975Z,0.30
2022-08-23T17:15:27.617Z,0.20
2022-08-23T17:17:58.412Z,0.30
2022-08-23T17:20:45.807Z,0.35
2022-08-23T17:23:23.041Z,0.28
2022-08-23T17:26:07.056Z,0.45
2022-08-23T17:28:41.859Z,0.20
2022-08-23T17:31:13.127Z,0.40
2022-08-23T17:33:49.389Z,0.50
2022-08-23T17:36:54.442Z,0.40
2022-08-23T17:39:28.915Z,0.57
2022-08-23T17:42:01.420Z,0.47
2022-08-23T17:44:38.590Z,0.30
2022-08-23T17:47:13.836Z,0.57
2022-08-23T17:49:48.153Z,0.20
2022-08-23T17:52:20.644Z,0.35
2022-08-23T17:54:56.852Z,0.40
2022-08-23T17:57:32.439Z,0.40
2022-08-23T18:00:06.478Z,0.35
2022-08-23T18:02:54.432Z,0.60
2022-08-23T18:05:29.720Z,0.52
2022-08-23T18:07:59.590Z,0.50
2022-08-23T18:10:30.214Z,0.30
2022-08-23T18:13:10.943Z,0.50
2022-08-23T18:15:42.950Z,0.30
2022-08-23T18:18:29.042Z,0.40
2022-08-23T18:20:58.745Z,0.40
2022-08-23T18:23:33.628Z,0.40
2022-08-23T18:26:35.207Z,0.30
2022-08-23T18:29:23.292Z,0.50
2022-08-23T18:32:00.479Z,0.55
2022-08-23T18:34:32.926Z,0.25
2022-08-23T18:37:02.920Z,0.43
2022-08-23T18:39:46.060Z,0.43
2022-08-23T18:42:25.821Z,0.30
2022-08-23T18:45:10.252Z,0.40
2022-08-23T18:47:50.023Z,0.25
2022-08-23T18:50:20.615Z,0.55
2022-08-23T18:52:51.714Z,0.43
2022-08-23T18:55:20.419Z,0.35
2022-08-23T18:57:51.104Z,0.32
2022-08-23T19:00:24.984Z,1.17
2022-08-23T19:03:00.873Z,0.45
2022-08-23T19:05:41.757Z,0.47
2022-08-23T19:08:16.460Z,0.45
2022-08-23T19:10:59.399Z,0.60
2022-08-23T19:13:29.348Z,0.57
2022-08-23T19:16:03.482Z,0.80
2022-08-23T19:18:38.996Z,0.73
2022-08-23T19:21:13.219Z,0.30
2022-08-23T19:23:52.109Z,0.60
2022-08-23T19:26:38.466Z,0.40
2022-08-23T19:29:13.637Z,0.43
2022-08-23T19:31:48.832Z,0.57
2022-08-23T19:34:38.656Z,0.30
2022-08-23T19:37:22.213Z,0.50
2022-08-23T19:42:45.193Z,0.30
2022-08-23T19:45:21.784Z,0.45
2022-08-23T19:47:55.544Z,0.43
2022-08-23T19:50:27.036Z,0.30
2022-08-23T19:55:42.452Z,0.30
2022-08-23T20:00:54.859Z,0.57
2022-08-23T20:03:24.009Z,0.40
2022-08-23T20:05:54.625Z,0.20
2022-08-23T20:11:15.620Z,0.30
2022-08-23T20:13:57.748Z,0.30
2022-08-23T20:16:35.770Z,0.30
2022-08-23T20:19:12.753Z,0.40
2022-08-23T20:21:42.626Z,0.50
2022-08-23T20:24:15.862Z,0.30
2022-08-23T20:26:55.270Z,0.40
2022-08-23T20:29:28.367Z,0.45
2022-08-23T20:32:04.254Z,0.30
2022-08-23T20:34:41.659Z,0.30
2022-08-23T20:37:12.676Z,0.50
2022-08-23T20:39:48.716Z,0.30
2022-08-23T20:42:26.261Z,0.38
2022-08-23T20:44:55.775Z,0.40
2022-08-23T20:47:30.055Z,0.40
2022-08-23T20:50:05.910Z,0.40
2022-08-23T20:52:46.833Z,0.47
2022-08-23T20:55:22.600Z,0.35
2022-08-23T20:57:52.807Z,0.40
2022-08-23T21:00:26.282Z,0.40
2022-08-23T21:02:58.989Z,0.32
2022-08-23T21:05:37.285Z,0.30
2022-08-23T21:11:01.565Z,0.32
2022-08-23T21:13:36.845Z,0.25
2022-08-23T21:16:19.597Z,0.30
2022-08-23T21:19:00.715Z,0.35
2022-08-23T21:21:32.226Z,0.15
2022-08-23T21:24:03.988Z,0.57
2022-08-23T21:26:51.150Z,0.20
2022-08-23T21:29:21.371Z,0.30
2022-08-23T21:31:53.518Z,0.52
2022-08-23T21:34:25.705Z,0.30
2022-08-23T21:36:56.921Z,0.35
2022-08-23T21:39:32.478Z,0.10
2022-08-23T21:42:15.341Z,0.40
2022-08-23T21:44:51.818Z,0.40
2022-08-23T21:47:28.623Z,0.28
2022-08-23T21:50:12.102Z,0.30
2022-08-23T21:52:42.725Z,0.30
2022-08-23T21:55:20.944Z,0.55
2022-08-23T21:58:01.463Z,0.30
2022-08-23T22:00:35.912Z,0.45
2022-08-23T22:03:16.901Z,0.30
2022-08-23T22:05:49.677Z,0.32
2022-08-23T22:08:23.092Z,0.40
2022-08-23T22:11:05.582Z,0.35
2022-08-23T22:13:41.735Z,0.35
2022-08-23T22:16:10.841Z,0.35
2022-08-23T22:18:48.572Z,0.13
2022-08-23T22:21:23.805Z,0.20
2022-08-23T22:23:59.463Z,0.20
2022-08-23T22:26:30.736Z,0.35
2022-08-23T22:29:02.187Z,0.32
2022-08-23T22:31:37.617Z,0.10
2022-08-23T22:34:17.119Z,0.28
2022-08-23T22:36:52.251Z,0.10
2022-08-23T22:39:20.922Z,0.30
2022-08-23T22:41:55.306Z,0.40
2022-08-23T22:44:25.190Z,0.10
2022-08-23T22:46:58.468Z,0.32
2022-08-23T22:49:49.669Z,0.20
2022-08-23T22:52:27.148Z,0.22
2022-08-23T22:54:57.444Z,0.30
2022-08-23T22:57:29.132Z,0.28
2022-08-23T23:00:10.910Z,0.60
2022-08-23T23:02:48.655Z,0.30
2022-08-23T23:05:22.811Z,0.35
2022-08-23T23:08:11.831Z,0.20
2022-08-23T23:10:56.121Z,0.20
2022-08-23T23:13:28.865Z,0.35
2022-08-23T23:16:02.423Z,0.15
2022-08-23T23:18:38.693Z,0.17
2022-08-23T23:21:09.176Z,0.55
2022-08-23T23:23:46.128Z,0.20
2022-08-23T23:26:17.875Z,0.20
2022-08-23T23:28:57.181Z,0.30
2022-08-23T23:31:28.800Z,0.60
2022-08-23T23:36:33.277Z,0.30
2022-08-23T23:39:03.635Z,0.20
2022-08-23T23:41:37.415Z,0.13
2022-08-23T23:44:06.690Z,0.40
2022-08-23T23:46:36.427Z,0.30
2022-08-23T23:49:12.653Z,0.40
2022-08-23T23:51:47.622Z,0.30
2022-08-23T23:54:22.276Z,0.20
2022-08-23T23:56:58.756Z,0.30
2022-08-23T23:59:36.010Z,0.20
